sensor_id;sensor_type;location;lat;lon;timestamp;pressure;altitude;pressure_sealevel;temperature;humidity
78741;BME280;68062;48.726;9.370;2023-07-20T00:00:57;98551.75;;;19.56;61.24
78741;BME280;68062;48.726;9.370;2023-07-20T00:03:24;98554.03;;;19.44;61.51
78741;BME280;68062;48.726;9.370;2023-07-20T00:05:51;98559.19;;;19.66;61.17
78741;BME280;68062;48.726;9.370;2023-07-20T00:08:18;98558.66;;;19.58;61.63
78741;BME280;68062;48.726;9.370;2023-07-20T00:10:45;98552.66;;;19.55;61.22
78741;BME280;68062;48.726;9.370;2023-07-20T00:13:13;98555.59;;;19.68;61.31
78741;BME280;68062;48.726;9.370;2023-07-20T00:15:41;98558.88;;;19.31;61.98
78741;BME280;68062;48.726;9.370;2023-07-20T00:18:08;98562.19;;;19.14;62.01
78741;BME280;68062;48.726;9.370;2023-07-20T00:20:35;98562.31;;;19.10;62.92
78741;BME280;68062;48.726;9.370;2023-07-20T00:23:01;98550.47;;;19.02;62.32
78741;BME280;68062;48.726;9.370;2023-07-20T00:25:28;98536.81;;;18.73;62.02
78741;BME280;68062;48.726;9.370;2023-07-20T00:27:55;98552.41;;;18.74;61.92
78741;BME280;68062;48.726;9.370;2023-07-20T00:30:23;98560.84;;;18.57;63.59
78741;BME280;68062;48.726;9.370;2023-07-20T00:32:50;98556.69;;;18.75;63.68
78741;BME280;68062;48.726;9.370;2023-07-20T00:35:17;98552.19;;;18.79;63.43
78741;BME280;68062;48.726;9.370;2023-07-20T00:37:44;98560.81;;;18.81;63.45
78741;BME280;68062;48.726;9.370;2023-07-20T00:40:11;98558.88;;;18.64;63.21
78741;BME280;68062;48.726;9.370;2023-07-20T00:42:38;98559.97;;;18.34;63.60
78741;BME280;68062;48.726;9.370;2023-07-20T00:45:06;98567.00;;;18.07;64.44
78741;BME280;68062;48.726;9.370;2023-07-20T00:47:34;98569.63;;;17.82;62.62
78741;BME280;68062;48.726;9.370;2023-07-20T00:50:02;98560.47;;;17.70;63.14
78741;BME280;68062;48.726;9.370;2023-07-20T00:52:31;98569.34;;;17.89;60.78
78741;BME280;68062;48.726;9.370;2023-07-20T00:54:58;98570.25;;;18.14;59.29
78741;BME280;68062;48.726;9.370;2023-07-20T00:57:25;98567.13;;;18.04;58.74
78741;BME280;68062;48.726;9.370;2023-07-20T00:59:52;98566.75;;;18.15;58.63
78741;BME280;68062;48.726;9.370;2023-07-20T01:02:19;98573.44;;;18.22;57.92
78741;BME280;68062;48.726;9.370;2023-07-20T01:04:47;98577.78;;;18.21;57.95
78741;BME280;68062;48.726;9.370;2023-07-20T01:07:20;98578.00;;;18.15;58.27
78741;BME280;68062;48.726;9.370;2023-07-20T01:10:00;98582.94;;;18.23;57.53
78741;BME280;68062;48.726;9.370;2023-07-20T01:12:33;98565.28;;;18.31;56.67
78741;BME280;68062;48.726;9.370;2023-07-20T01:15:03;98578.41;;;18.28;56.92
78741;BME280;68062;48.726;9.370;2023-07-20T01:17:30;98572.69;;;18.18;58.12
78741;BME280;68062;48.726;9.370;2023-07-20T01:19:59;98578.09;;;18.12;58.37
78741;BME280;68062;48.726;9.370;2023-07-20T01:22:47;98569.84;;;18.01;58.87
78741;BME280;68062;48.726;9.370;2023-07-20T01:25:54;98572.84;;;17.88;60.22
78741;BME280;68062;48.726;9.370;2023-07-20T01:29:11;98578.88;;;17.63;63.72
78741;BME280;68062;48.726;9.370;2023-07-20T01:31:45;98569.75;;;17.77;62.94
78741;BME280;68062;48.726;9.370;2023-07-20T01:34:17;98579.75;;;17.64;60.64
78741;BME280;68062;48.726;9.370;2023-07-20T01:36:46;98575.84;;;17.50;62.35
78741;BME280;68062;48.726;9.370;2023-07-20T01:39:13;98579.94;;;17.58;62.23
78741;BME280;68062;48.726;9.370;2023-07-20T01:41:40;98572.84;;;17.36;64.60
78741;BME280;68062;48.726;9.370;2023-07-20T01:44:08;98576.84;;;17.46;64.58
78741;BME280;68062;48.726;9.370;2023-07-20T01:46:36;98571.34;;;17.29;65.61
78741;BME280;68062;48.726;9.370;2023-07-20T01:49:04;98564.19;;;17.35;65.35
78741;BME280;68062;48.726;9.370;2023-07-20T01:51:31;98574.16;;;17.49;64.60
78741;BME280;68062;48.726;9.370;2023-07-20T01:53:58;98570.19;;;17.38;64.48
78741;BME280;68062;48.726;9.370;2023-07-20T01:56:25;98571.88;;;17.39;65.10
78741;BME280;68062;48.726;9.370;2023-07-20T01:58:52;98582.47;;;17.59;64.43
78741;BME280;68062;48.726;9.370;2023-07-20T02:01:19;98571.00;;;17.40;64.40
78741;BME280;68062;48.726;9.370;2023-07-20T02:03:49;98564.56;;;16.96;66.49
78741;BME280;68062;48.726;9.370;2023-07-20T02:06:17;98576.88;;;16.61;67.32
78741;BME280;68062;48.726;9.370;2023-07-20T02:08:44;98575.06;;;16.93;66.31
78741;BME280;68062;48.726;9.370;2023-07-20T02:11:11;98577.13;;;17.10;65.79
78741;BME280;68062;48.726;9.370;2023-07-20T02:13:38;98580.03;;;16.71;67.12
78741;BME280;68062;48.726;9.370;2023-07-20T02:16:05;98582.69;;;16.39;68.42
78741;BME280;68062;48.726;9.370;2023-07-20T02:18:32;98586.34;;;16.32;69.21
78741;BME280;68062;48.726;9.370;2023-07-20T02:20:59;98564.78;;;16.60;67.87
78741;BME280;68062;48.726;9.370;2023-07-20T02:23:27;98581.69;;;16.73;67.28
78741;BME280;68062;48.726;9.370;2023-07-20T02:25:54;98573.69;;;16.51;68.19
78741;BME280;68062;48.726;9.370;2023-07-20T02:28:21;98584.41;;;16.39;69.19
78741;BME280;68062;48.726;9.370;2023-07-20T02:30:49;98581.59;;;16.15;69.56
78741;BME280;68062;48.726;9.370;2023-07-20T02:33:15;98582.69;;;16.39;68.99
78741;BME280;68062;48.726;9.370;2023-07-20T02:35:42;98579.81;;;16.48;69.52
78741;BME280;68062;48.726;9.370;2023-07-20T02:38:09;98579.91;;;16.14;72.03
78741;BME280;68062;48.726;9.370;2023-07-20T02:40:38;98585.81;;;15.87;73.74
78741;BME280;68062;48.726;9.370;2023-07-20T02:43:04;98590.19;;;15.49;74.27
78741;BME280;68062;48.726;9.370;2023-07-20T02:45:31;98590.31;;;15.44;74.51
78741;BME280;68062;48.726;9.370;2023-07-20T02:47:58;98586.41;;;15.63;72.69
78741;BME280;68062;48.726;9.370;2023-07-20T02:50:25;98586.19;;;15.72;72.93
78741;BME280;68062;48.726;9.370;2023-07-20T02:52:52;98588.25;;;15.94;73.02
78741;BME280;68062;48.726;9.370;2023-07-20T02:55:19;98596.66;;;16.02;72.49
78741;BME280;68062;48.726;9.370;2023-07-20T02:57:46;98606.03;;;15.73;73.43
78741;BME280;68062;48.726;9.370;2023-07-20T03:00:14;98605.72;;;15.85;73.28
78741;BME280;68062;48.726;9.370;2023-07-20T03:02:42;98599.28;;;16.00;71.70
78741;BME280;68062;48.726;9.370;2023-07-20T03:05:09;98605.59;;;15.92;72.25
78741;BME280;68062;48.726;9.370;2023-07-20T03:07:36;98602.53;;;15.76;72.37
78741;BME280;68062;48.726;9.370;2023-07-20T03:10:04;98608.78;;;15.67;73.52
78741;BME280;68062;48.726;9.370;2023-07-20T03:12:33;98610.00;;;15.52;74.95
78741;BME280;68062;48.726;9.370;2023-07-20T03:15:02;98607.88;;;15.33;73.79
78741;BME280;68062;48.726;9.370;2023-07-20T03:17:29;98606.03;;;15.37;75.02
78741;BME280;68062;48.726;9.370;2023-07-20T03:19:56;98605.09;;;15.03;76.46
78741;BME280;68062;48.726;9.370;2023-07-20T03:22:23;98604.16;;;15.06;76.73
78741;BME280;68062;48.726;9.370;2023-07-20T03:24:50;98604.28;;;15.01;76.79
78741;BME280;68062;48.726;9.370;2023-07-20T03:27:17;98608.00;;;15.27;75.68
78741;BME280;68062;48.726;9.370;2023-07-20T03:29:44;98608.63;;;15.37;76.32
78741;BME280;68062;48.726;9.370;2023-07-20T03:32:13;98613.19;;;15.27;78.92
78741;BME280;68062;48.726;9.370;2023-07-20T03:34:40;98613.06;;;15.32;78.75
78741;BME280;68062;48.726;9.370;2023-07-20T03:37:07;98616.47;;;15.34;79.77
78741;BME280;68062;48.726;9.370;2023-07-20T03:39:34;98612.75;;;15.08;78.78
78741;BME280;68062;48.726;9.370;2023-07-20T03:42:00;98629.19;;;15.07;78.22
78741;BME280;68062;48.726;9.370;2023-07-20T03:44:27;98620.53;;;15.08;77.83
78741;BME280;68062;48.726;9.370;2023-07-20T03:46:55;98629.19;;;15.07;79.89
78741;BME280;68062;48.726;9.370;2023-07-20T03:49:23;98632.97;;;14.90;78.62
78741;BME280;68062;48.726;9.370;2023-07-20T03:51:50;98632.53;;;14.71;80.84
78741;BME280;68062;48.726;9.370;2023-07-20T03:54:17;98629.91;;;15.13;78.35
78741;BME280;68062;48.726;9.370;2023-07-20T03:56:44;98623.28;;;15.38;77.53
78741;BME280;68062;48.726;9.370;2023-07-20T03:59:11;98630.19;;;15.39;76.90
78741;BME280;68062;48.726;9.370;2023-07-20T04:01:38;98629.16;;;15.46;76.14
78741;BME280;68062;48.726;9.370;2023-07-20T04:04:07;98633.50;;;15.44;75.76
78741;BME280;68062;48.726;9.370;2023-07-20T04:06:35;98633.53;;;15.05;77.33
78741;BME280;68062;48.726;9.370;2023-07-20T04:09:03;98630.66;;;14.78;79.80
78741;BME280;68062;48.726;9.370;2023-07-20T04:11:30;98639.91;;;14.90;78.87
78741;BME280;68062;48.726;9.370;2023-07-20T04:13:57;98637.06;;;15.00;78.50
78741;BME280;68062;48.726;9.370;2023-07-20T04:16:24;98632.34;;;15.20;78.19
78741;BME280;68062;48.726;9.370;2023-07-20T04:18:51;98638.09;;;15.33;77.70
78741;BME280;68062;48.726;9.370;2023-07-20T04:21:18;98640.44;;;15.43;77.68
78741;BME280;68062;48.726;9.370;2023-07-20T04:23:47;98647.81;;;15.60;76.46
78741;BME280;68062;48.726;9.370;2023-07-20T04:26:14;98645.41;;;15.53;77.10
78741;BME280;68062;48.726;9.370;2023-07-20T04:28:41;98649.28;;;15.71;75.74
78741;BME280;68062;48.726;9.370;2023-07-20T04:31:11;98648.53;;;15.67;76.61
78741;BME280;68062;48.726;9.370;2023-07-20T04:33:37;98648.00;;;15.53;78.83
78741;BME280;68062;48.726;9.370;2023-07-20T04:36:05;98650.97;;;15.73;78.56
78741;BME280;68062;48.726;9.370;2023-07-20T04:38:34;98643.34;;;16.02;74.93
78741;BME280;68062;48.726;9.370;2023-07-20T04:41:11;98637.78;;;16.16;74.30
78741;BME280;68062;48.726;9.370;2023-07-20T04:43:41;98635.97;;;16.20;75.54
78741;BME280;68062;48.726;9.370;2023-07-20T04:46:10;98646.94;;;16.29;74.43
78741;BME280;68062;48.726;9.370;2023-07-20T04:48:37;98642.31;;;16.41;73.45
78741;BME280;68062;48.726;9.370;2023-07-20T04:51:04;98643.75;;;16.51;73.48
78741;BME280;68062;48.726;9.370;2023-07-20T04:53:32;98646.06;;;16.30;75.64
78741;BME280;68062;48.726;9.370;2023-07-20T04:55:59;98638.69;;;16.15;75.87
78741;BME280;68062;48.726;9.370;2023-07-20T04:58:28;98645.84;;;16.70;72.89
78741;BME280;68062;48.726;9.370;2023-07-20T05:00:55;98645.94;;;16.97;72.25
78741;BME280;68062;48.726;9.370;2023-07-20T05:03:22;98644.84;;;17.05;71.27
78741;BME280;68062;48.726;9.370;2023-07-20T05:05:49;98654.69;;;17.23;70.16
78741;BME280;68062;48.726;9.370;2023-07-20T05:08:16;98650.72;;;17.39;69.61
78741;BME280;68062;48.726;9.370;2023-07-20T05:10:43;98653.84;;;17.50;67.93
78741;BME280;68062;48.726;9.370;2023-07-20T05:13:10;98643.94;;;17.62;67.85
78741;BME280;68062;48.726;9.370;2023-07-20T05:15:38;98654.44;;;17.86;68.13
78741;BME280;68062;48.726;9.370;2023-07-20T05:18:08;98649.75;;;17.95;67.35
78741;BME280;68062;48.726;9.370;2023-07-20T05:20:35;98646.94;;;18.03;67.37
78741;BME280;68062;48.726;9.370;2023-07-20T05:23:02;98645.94;;;18.07;66.87
78741;BME280;68062;48.726;9.370;2023-07-20T05:25:29;98646.84;;;18.06;67.74
78741;BME280;68062;48.726;9.370;2023-07-20T05:27:56;98648.03;;;17.96;68.26
78741;BME280;68062;48.726;9.370;2023-07-20T05:30:23;98643.59;;;18.00;67.62
78741;BME280;68062;48.726;9.370;2023-07-20T05:32:51;98646.13;;;18.27;65.44
78741;BME280;68062;48.726;9.370;2023-07-20T05:35:20;98652.22;;;18.51;66.06
78741;BME280;68062;48.726;9.370;2023-07-20T05:37:47;98646.44;;;18.43;65.65
78741;BME280;68062;48.726;9.370;2023-07-20T05:40:15;98642.53;;;18.31;64.96
78741;BME280;68062;48.726;9.370;2023-07-20T05:42:44;98648.63;;;18.55;65.39
78741;BME280;68062;48.726;9.370;2023-07-20T05:45:14;98642.78;;;18.94;63.83
78741;BME280;68062;48.726;9.370;2023-07-20T05:47:41;98640.41;;;19.12;64.14
78741;BME280;68062;48.726;9.370;2023-07-20T05:50:10;98648.09;;;18.93;62.77
78741;BME280;68062;48.726;9.370;2023-07-20T05:52:36;98645.63;;;18.88;63.53
78741;BME280;68062;48.726;9.370;2023-07-20T05:55:05;98652.31;;;19.19;61.41
78741;BME280;68062;48.726;9.370;2023-07-20T05:57:32;98649.59;;;19.45;60.27
78741;BME280;68062;48.726;9.370;2023-07-20T05:59:59;98645.13;;;19.69;59.51
78741;BME280;68062;48.726;9.370;2023-07-20T06:02:26;98653.47;;;19.77;59.03
78741;BME280;68062;48.726;9.370;2023-07-20T06:04:53;98645.75;;;19.76;58.69
78741;BME280;68062;48.726;9.370;2023-07-20T06:07:21;98649.94;;;19.58;59.95
78741;BME280;68062;48.726;9.370;2023-07-20T06:09:48;98650.31;;;19.48;61.04
78741;BME280;68062;48.726;9.370;2023-07-20T06:12:15;98648.84;;;19.63;59.29
78741;BME280;68062;48.726;9.370;2023-07-20T06:14:42;98647.19;;;19.83;58.71
78741;BME280;68062;48.726;9.370;2023-07-20T06:17:09;98648.44;;;19.95;59.87
78741;BME280;68062;48.726;9.370;2023-07-20T06:19:36;98658.63;;;20.22;58.39
78741;BME280;68062;48.726;9.370;2023-07-20T06:22:02;98655.59;;;20.52;57.07
78741;BME280;68062;48.726;9.370;2023-07-20T06:24:31;98647.44;;;20.79;55.54
78741;BME280;68062;48.726;9.370;2023-07-20T06:26:57;98653.25;;;20.65;55.65
78741;BME280;68062;48.726;9.370;2023-07-20T06:29:24;98647.63;;;20.74;55.78
78741;BME280;68062;48.726;9.370;2023-07-20T06:31:51;98650.63;;;21.05;55.11
78741;BME280;68062;48.726;9.370;2023-07-20T06:34:18;98649.34;;;21.13;55.67
78741;BME280;68062;48.726;9.370;2023-07-20T06:36:45;98642.28;;;20.96;55.68
78741;BME280;68062;48.726;9.370;2023-07-20T06:39:12;98641.53;;;20.94;55.46
78741;BME280;68062;48.726;9.370;2023-07-20T06:41:41;98639.88;;;20.92;56.29
78741;BME280;68062;48.726;9.370;2023-07-20T06:44:08;98633.25;;;21.21;54.64
78741;BME280;68062;48.726;9.370;2023-07-20T06:46:35;98640.28;;;21.21;56.42
78741;BME280;68062;48.726;9.370;2023-07-20T06:49:05;98638.31;;;20.87;55.77
78741;BME280;68062;48.726;9.370;2023-07-20T06:51:32;98640.78;;;20.91;56.67
78741;BME280;68062;48.726;9.370;2023-07-20T06:53:59;98642.03;;;21.57;54.05
78741;BME280;68062;48.726;9.370;2023-07-20T06:56:26;98636.69;;;21.78;52.69
78741;BME280;68062;48.726;9.370;2023-07-20T06:58:54;98634.91;;;21.78;52.53
78741;BME280;68062;48.726;9.370;2023-07-20T07:01:21;98642.00;;;21.76;52.91
78741;BME280;68062;48.726;9.370;2023-07-20T07:03:48;98639.78;;;21.86;53.53
78741;BME280;68062;48.726;9.370;2023-07-20T07:06:15;98631.00;;;21.87;51.34
78741;BME280;68062;48.726;9.370;2023-07-20T07:08:41;98637.25;;;21.48;52.95
78741;BME280;68062;48.726;9.370;2023-07-20T07:11:10;98643.63;;;21.96;52.40
78741;BME280;68062;48.726;9.370;2023-07-20T07:13:37;98622.59;;;21.63;52.98
78741;BME280;68062;48.726;9.370;2023-07-20T07:16:05;98639.00;;;21.66;52.70
78741;BME280;68062;48.726;9.370;2023-07-20T07:18:32;98636.69;;;22.13;51.92
78741;BME280;68062;48.726;9.370;2023-07-20T07:20:59;98636.13;;;22.06;50.52
78741;BME280;68062;48.726;9.370;2023-07-20T07:23:26;98623.91;;;21.89;51.87
78741;BME280;68062;48.726;9.370;2023-07-20T07:25:53;98630.13;;;21.86;53.44
78741;BME280;68062;48.726;9.370;2023-07-20T07:28:20;98634.59;;;22.02;52.16
78741;BME280;68062;48.726;9.370;2023-07-20T07:30:46;98623.13;;;22.04;51.35
78741;BME280;68062;48.726;9.370;2023-07-20T07:33:15;98624.09;;;22.19;51.48
78741;BME280;68062;48.726;9.370;2023-07-20T07:35:41;98618.03;;;22.53;50.56
78741;BME280;68062;48.726;9.370;2023-07-20T07:38:08;98624.50;;;22.95;49.80
78741;BME280;68062;48.726;9.370;2023-07-20T07:40:34;98620.28;;;23.08;48.68
78741;BME280;68062;48.726;9.370;2023-07-20T07:43:01;98621.59;;;22.52;50.68
78741;BME280;68062;48.726;9.370;2023-07-20T07:45:29;98622.03;;;22.60;50.44
78741;BME280;68062;48.726;9.370;2023-07-20T07:47:56;98621.09;;;23.09;49.35
78741;BME280;68062;48.726;9.370;2023-07-20T07:50:24;98618.63;;;23.54;48.33
78741;BME280;68062;48.726;9.370;2023-07-20T07:52:52;98610.03;;;23.66;47.36
78741;BME280;68062;48.726;9.370;2023-07-20T07:55:19;98617.44;;;24.05;47.07
78741;BME280;68062;48.726;9.370;2023-07-20T07:57:46;98619.25;;;24.62;45.90
78741;BME280;68062;48.726;9.370;2023-07-20T08:00:14;98604.75;;;25.66;43.49
78741;BME280;68062;48.726;9.370;2023-07-20T08:02:44;98605.53;;;24.72;44.79
78741;BME280;68062;48.726;9.370;2023-07-20T08:05:12;98607.13;;;24.60;44.99
78741;BME280;68062;48.726;9.370;2023-07-20T08:07:40;98614.94;;;24.18;46.12
78741;BME280;68062;48.726;9.370;2023-07-20T08:10:08;98607.59;;;24.66;45.01
78741;BME280;68062;48.726;9.370;2023-07-20T08:12:35;98615.53;;;24.94;44.70
78741;BME280;68062;48.726;9.370;2023-07-20T08:15:03;98611.81;;;25.66;43.04
78741;BME280;68062;48.726;9.370;2023-07-20T08:17:30;98608.03;;;24.88;44.09
78741;BME280;68062;48.726;9.370;2023-07-20T08:19:57;98608.16;;;24.72;44.96
78741;BME280;68062;48.726;9.370;2023-07-20T08:22:24;98611.50;;;25.70;43.32
78741;BME280;68062;48.726;9.370;2023-07-20T08:24:52;98596.16;;;26.79;40.92
78741;BME280;68062;48.726;9.370;2023-07-20T08:27:19;98593.16;;;26.97;40.60
78741;BME280;68062;48.726;9.370;2023-07-20T08:29:46;98597.22;;;26.77;41.58
78741;BME280;68062;48.726;9.370;2023-07-20T08:32:12;98603.13;;;26.80;40.65
78741;BME280;68062;48.726;9.370;2023-07-20T08:34:42;98587.91;;;27.21;39.98
78741;BME280;68062;48.726;9.370;2023-07-20T08:37:08;98586.97;;;25.83;41.53
78741;BME280;68062;48.726;9.370;2023-07-20T08:39:36;98591.59;;;26.57;41.04
78741;BME280;68062;48.726;9.370;2023-07-20T08:42:05;98586.41;;;27.06;39.78
78741;BME280;68062;48.726;9.370;2023-07-20T08:44:33;98590.13;;;25.75;40.91
78741;BME280;68062;48.726;9.370;2023-07-20T08:47:01;98588.59;;;26.24;40.71
78741;BME280;68062;48.726;9.370;2023-07-20T08:49:30;98585.59;;;27.16;39.19
78741;BME280;68062;48.726;9.370;2023-07-20T08:51:58;98590.44;;;26.98;39.14
78741;BME280;68062;48.726;9.370;2023-07-20T08:54:28;98587.47;;;26.53;39.65
78741;BME280;68062;48.726;9.370;2023-07-20T08:57:01;98549.25;;;25.16;42.27
78741;BME280;68062;48.726;9.370;2023-07-20T08:59:30;98577.97;;;24.92;41.55
78741;BME280;68062;48.726;9.370;2023-07-20T09:01:58;98580.69;;;25.45;40.68
78741;BME280;68062;48.726;9.370;2023-07-20T09:04:25;98580.56;;;26.26;39.89
78741;BME280;68062;48.726;9.370;2023-07-20T09:06:51;98577.63;;;26.31;38.42
78741;BME280;68062;48.726;9.370;2023-07-20T09:09:19;98573.22;;;26.18;38.49
78741;BME280;68062;48.726;9.370;2023-07-20T09:11:47;98578.91;;;27.24;36.49
78741;BME280;68062;48.726;9.370;2023-07-20T09:14:15;98577.59;;;25.92;38.70
78741;BME280;68062;48.726;9.370;2023-07-20T09:16:51;98580.66;;;24.77;40.40
78741;BME280;68062;48.726;9.370;2023-07-20T09:19:19;98569.75;;;25.11;39.66
78741;BME280;68062;48.726;9.370;2023-07-20T09:21:46;98569.72;;;25.79;39.58
78741;BME280;68062;48.726;9.370;2023-07-20T09:24:14;98576.44;;;25.83;39.65
78741;BME280;68062;48.726;9.370;2023-07-20T09:26:42;98567.59;;;24.76;41.84
78741;BME280;68062;48.726;9.370;2023-07-20T09:29:10;98574.06;;;24.85;41.73
78741;BME280;68062;48.726;9.370;2023-07-20T09:31:37;98571.78;;;25.86;40.43
78741;BME280;68062;48.726;9.370;2023-07-20T09:34:05;98559.69;;;26.36;38.84
78741;BME280;68062;48.726;9.370;2023-07-20T09:36:36;98565.69;;;26.38;38.85
78741;BME280;68062;48.726;9.370;2023-07-20T09:39:03;98566.97;;;25.00;40.29
78741;BME280;68062;48.726;9.370;2023-07-20T09:41:39;98564.94;;;24.90;38.97
78741;BME280;68062;48.726;9.370;2023-07-20T09:44:07;98554.75;;;25.39;39.28
78741;BME280;68062;48.726;9.370;2023-07-20T09:46:43;98565.88;;;25.70;38.25
78741;BME280;68062;48.726;9.370;2023-07-20T09:49:11;98568.13;;;25.89;36.97
78741;BME280;68062;48.726;9.370;2023-07-20T09:51:39;98552.56;;;25.05;39.14
78741;BME280;68062;48.726;9.370;2023-07-20T09:54:07;98565.13;;;25.15;40.03
78741;BME280;68062;48.726;9.370;2023-07-20T09:56:34;98558.69;;;25.46;38.86
78741;BME280;68062;48.726;9.370;2023-07-20T09:59:02;98557.81;;;26.99;36.81
78741;BME280;68062;48.726;9.370;2023-07-20T10:01:29;98546.94;;;27.87;35.62
78741;BME280;68062;48.726;9.370;2023-07-20T10:03:58;98541.66;;;28.10;34.30
78741;BME280;68062;48.726;9.370;2023-07-20T10:06:29;98550.44;;;29.32;33.27
78741;BME280;68062;48.726;9.370;2023-07-20T10:09:02;98552.63;;;26.36;36.68
78741;BME280;68062;48.726;9.370;2023-07-20T10:11:34;98552.50;;;26.88;36.89
78741;BME280;68062;48.726;9.370;2023-07-20T10:14:03;98538.69;;;27.09;36.43
78741;BME280;68062;48.726;9.370;2023-07-20T10:16:35;98543.25;;;26.32;37.34
78741;BME280;68062;48.726;9.370;2023-07-20T10:19:05;98527.06;;;24.51;40.52
78741;BME280;68062;48.726;9.370;2023-07-20T10:21:39;98549.28;;;25.29;40.38
78741;BME280;68062;48.726;9.370;2023-07-20T10:24:07;98536.84;;;25.97;38.68
78741;BME280;68062;48.726;9.370;2023-07-20T10:26:36;98546.72;;;25.94;39.49
78741;BME280;68062;48.726;9.370;2023-07-20T10:29:03;98536.50;;;26.41;38.40
78741;BME280;68062;48.726;9.370;2023-07-20T10:31:32;98524.13;;;27.27;36.41
78741;BME280;68062;48.726;9.370;2023-07-20T10:33:59;98517.75;;;28.00;35.44
78741;BME280;68062;48.726;9.370;2023-07-20T10:36:27;98513.00;;;28.83;35.12
78741;BME280;68062;48.726;9.370;2023-07-20T10:38:56;98512.38;;;28.91;33.98
78741;BME280;68062;48.726;9.370;2023-07-20T10:41:28;98511.19;;;29.37;32.57
78741;BME280;68062;48.726;9.370;2023-07-20T10:44:00;98507.19;;;27.66;34.67
78741;BME280;68062;48.726;9.370;2023-07-20T10:46:41;98516.72;;;28.25;34.44
78741;BME280;68062;48.726;9.370;2023-07-20T10:49:09;98499.47;;;28.98;32.62
78741;BME280;68062;48.726;9.370;2023-07-20T10:51:40;98500.47;;;27.96;33.38
78741;BME280;68062;48.726;9.370;2023-07-20T10:54:12;98498.28;;;28.01;33.48
78741;BME280;68062;48.726;9.370;2023-07-20T10:56:57;98491.06;;;28.48;32.80
78741;BME280;68062;48.726;9.370;2023-07-20T10:59:37;98499.28;;;27.41;34.40
78741;BME280;68062;48.726;9.370;2023-07-20T11:02:06;98502.13;;;28.08;35.53
78741;BME280;68062;48.726;9.370;2023-07-20T11:04:38;98500.78;;;25.46;37.72
78741;BME280;68062;48.726;9.370;2023-07-20T11:07:05;98502.38;;;25.08;38.99
78741;BME280;68062;48.726;9.370;2023-07-20T11:09:35;98496.84;;;25.39;38.87
78741;BME280;68062;48.726;9.370;2023-07-20T11:12:09;98500.28;;;25.80;36.99
78741;BME280;68062;48.726;9.370;2023-07-20T11:14:40;98497.72;;;26.54;36.19
78741;BME280;68062;48.726;9.370;2023-07-20T11:17:11;98488.59;;;27.20;34.39
78741;BME280;68062;48.726;9.370;2023-07-20T11:19:39;98451.94;;;28.19;32.66
78741;BME280;68062;48.726;9.370;2023-07-20T11:22:06;98486.31;;;29.07;31.73
78741;BME280;68062;48.726;9.370;2023-07-20T11:24:38;98480.78;;;27.77;34.27
78741;BME280;68062;48.726;9.370;2023-07-20T11:27:05;98478.25;;;27.98;33.89
78741;BME280;68062;48.726;9.370;2023-07-20T11:29:35;98475.22;;;28.92;33.07
78741;BME280;68062;48.726;9.370;2023-07-20T11:32:02;98473.94;;;29.08;33.32
78741;BME280;68062;48.726;9.370;2023-07-20T11:34:30;98477.56;;;28.63;32.93
78741;BME280;68062;48.726;9.370;2023-07-20T11:36:57;98480.53;;;27.22;34.03
78741;BME280;68062;48.726;9.370;2023-07-20T11:39:24;98472.84;;;27.66;33.28
78741;BME280;68062;48.726;9.370;2023-07-20T11:41:54;98477.38;;;28.43;33.14
78741;BME280;68062;48.726;9.370;2023-07-20T11:44:22;98457.34;;;27.95;32.76
78741;BME280;68062;48.726;9.370;2023-07-20T11:46:59;98477.78;;;28.16;32.46
78741;BME280;68062;48.726;9.370;2023-07-20T11:49:26;98469.56;;;28.42;31.90
78741;BME280;68062;48.726;9.370;2023-07-20T11:51:53;98469.66;;;29.17;31.51
78741;BME280;68062;48.726;9.370;2023-07-20T11:54:21;98461.91;;;29.99;29.61
78741;BME280;68062;48.726;9.370;2023-07-20T11:56:47;98464.56;;;29.77;30.75
78741;BME280;68062;48.726;9.370;2023-07-20T11:59:18;98462.84;;;29.14;30.83
78741;BME280;68062;48.726;9.370;2023-07-20T12:01:45;98460.63;;;28.98;30.67
78741;BME280;68062;48.726;9.370;2023-07-20T12:04:12;98455.13;;;28.90;31.26
78741;BME280;68062;48.726;9.370;2023-07-20T12:06:39;98454.88;;;29.35;31.27
78741;BME280;68062;48.726;9.370;2023-07-20T12:09:05;98444.59;;;28.78;31.78
78741;BME280;68062;48.726;9.370;2023-07-20T12:11:33;98446.34;;;28.89;31.19
78741;BME280;68062;48.726;9.370;2023-07-20T12:14:02;98430.66;;;27.41;31.92
78741;BME280;68062;48.726;9.370;2023-07-20T12:16:30;98444.75;;;26.46;33.87
78741;BME280;68062;48.726;9.370;2023-07-20T12:19:02;98444.03;;;26.31;34.00
78741;BME280;68062;48.726;9.370;2023-07-20T12:21:29;98433.81;;;26.75;33.38
78741;BME280;68062;48.726;9.370;2023-07-20T12:23:56;98428.50;;;28.26;30.65
78741;BME280;68062;48.726;9.370;2023-07-20T12:26:24;98429.44;;;28.37;31.01
78741;BME280;68062;48.726;9.370;2023-07-20T12:28:52;98427.72;;;27.10;31.85
78741;BME280;68062;48.726;9.370;2023-07-20T12:31:19;98427.09;;;27.54;31.75
78741;BME280;68062;48.726;9.370;2023-07-20T12:33:48;98427.13;;;28.43;31.40
78741;BME280;68062;48.726;9.370;2023-07-20T12:36:15;98423.09;;;27.25;31.51
78741;BME280;68062;48.726;9.370;2023-07-20T12:38:42;98414.28;;;27.72;31.41
78741;BME280;68062;48.726;9.370;2023-07-20T12:41:10;98422.44;;;29.64;29.46
78741;BME280;68062;48.726;9.370;2023-07-20T12:43:39;98418.34;;;29.91;28.67
78741;BME280;68062;48.726;9.370;2023-07-20T12:46:06;98418.53;;;28.18;30.41
78741;BME280;68062;48.726;9.370;2023-07-20T12:48:33;98415.72;;;27.76;30.70
78741;BME280;68062;48.726;9.370;2023-07-20T12:51:02;98422.75;;;28.98;30.48
78741;BME280;68062;48.726;9.370;2023-07-20T12:53:29;98415.53;;;28.12;31.00
78741;BME280;68062;48.726;9.370;2023-07-20T12:55:56;98416.81;;;26.79;32.12
78741;BME280;68062;48.726;9.370;2023-07-20T12:58:22;98409.81;;;28.83;30.89
78741;BME280;68062;48.726;9.370;2023-07-20T13:00:50;98399.63;;;29.83;28.63
78741;BME280;68062;48.726;9.370;2023-07-20T13:03:17;98400.13;;;27.61;30.64
78741;BME280;68062;48.726;9.370;2023-07-20T13:05:45;98401.63;;;28.86;29.01